モントリオール/トルドー の空港の天気 - METARとTAF

モントリオール・ピエール・エリオット・トルドー国際空港 ( CYUL / YUL ) - カナダ ケベック州モントリオール
飛行場実況気象(Metar)
観測時間02/20 10:00 EST (02/20 15:00 UTC)
風向・風速北 4m/s
視程10km以上
天気現象
少しの雲 雲底高度 1220m
気温-3℃
湿度59%
気圧1027hPa
METARCYUL 201500Z 36007KT 30SM FEW040 M03/M10 A3032 RMK SC1 SC TR SLP270
過去の天気等 Google飛行場航空写真 Wunderground天気予報

過去48時間のMETAR

飛行場予報(TAF)
発表時間: 2/20 09:38 EST (2/20 14:38 UTC)
予報対象時間: 20日10時 EST ~ 21日7時 EST
風向・風速北 6m/s
視程10km以上
少しの雲 雲底高度 1,220m
20日14時 EST ~ 20日16時 EST に徐々に
風向・風速南西 4m/s
20日19時 EST から
風向・風速不定 2m/s
視程10km以上
なし
TAF CYUL 201438Z 2015/2112 35012KT P6SM FEW040
BECMG 2019/2021 22007KT
FM210000 VRB03KT P6SM SKC RMK NXT FCST BY 201800Z